createdAt,value
2018-05-23T00:00:05.127Z,6.33
2018-05-23T00:02:32.716Z,5.40
2018-05-23T00:05:00.669Z,5.10
2018-05-23T00:07:28.345Z,5.00
2018-05-23T00:09:56.252Z,4.93
2018-05-23T00:12:23.839Z,4.40
2018-05-23T00:14:51.550Z,4.50
2018-05-23T00:17:19.121Z,4.80
2018-05-23T00:19:46.699Z,5.03
2018-05-23T00:22:14.418Z,5.13
2018-05-23T00:24:42.041Z,5.03
2018-05-23T00:27:09.625Z,5.80
2018-05-23T00:29:37.233Z,6.17
2018-05-23T00:32:04.839Z,5.57
2018-05-23T00:34:32.730Z,5.40
2018-05-23T00:37:00.536Z,5.50
2018-05-23T00:39:28.123Z,5.83
2018-05-23T00:41:55.735Z,5.60
2018-05-23T00:44:23.438Z,5.87
2018-05-23T00:46:50.999Z,6.33
2018-05-23T00:49:18.567Z,5.30
2018-05-23T00:51:46.166Z,6.10
2018-05-23T00:54:13.729Z,6.10
2018-05-23T00:56:41.690Z,7.03
2018-05-23T00:59:09.568Z,6.50
2018-05-23T01:01:37.223Z,6.03
2018-05-23T01:04:05.135Z,6.57
2018-05-23T01:06:32.819Z,5.83
2018-05-23T01:09:00.481Z,6.13
2018-05-23T01:11:28.296Z,6.90
2018-05-23T01:13:55.968Z,6.03
2018-05-23T01:16:23.812Z,6.20
2018-05-23T01:18:51.831Z,5.40
2018-05-23T01:21:19.529Z,6.00
2018-05-23T01:23:47.124Z,6.50
2018-05-23T01:26:14.810Z,6.77
2018-05-23T01:28:42.837Z,5.97
2018-05-23T01:31:10.507Z,5.73
2018-05-23T01:33:38.062Z,6.00
2018-05-23T01:36:05.742Z,6.83
2018-05-23T01:38:33.546Z,5.57
2018-05-23T01:41:01.888Z,5.83
2018-05-23T01:43:29.446Z,5.90
2018-05-23T01:45:57.020Z,6.10
2018-05-23T01:48:24.668Z,5.70
2018-05-23T01:50:52.327Z,6.90
2018-05-23T01:53:20.395Z,5.80
2018-05-23T01:55:48.032Z,6.20
2018-05-23T01:58:15.593Z,5.50
2018-05-23T02:00:43.268Z,6.30
2018-05-23T02:03:11.129Z,6.60
2018-05-23T02:05:39.112Z,6.60
2018-05-23T02:08:06.689Z,6.10
2018-05-23T02:10:34.258Z,6.37
2018-05-23T02:13:01.905Z,6.47
2018-05-23T02:15:29.480Z,6.47
2018-05-23T02:17:57.177Z,6.13
2018-05-23T02:20:24.746Z,6.40
2018-05-23T02:22:52.316Z,6.47
2018-05-23T02:25:20.031Z,5.90
2018-05-23T02:27:47.836Z,7.73
2018-05-23T02:30:15.471Z,6.63
2018-05-23T02:32:43.089Z,6.47
2018-05-23T02:35:10.811Z,6.53
2018-05-23T02:37:38.402Z,6.00
2018-05-23T02:40:06.061Z,6.27
2018-05-23T02:42:33.762Z,6.40
2018-05-23T02:45:01.313Z,5.90
2018-05-23T02:47:29.155Z,6.10
2018-05-23T02:49:56.777Z,6.43
2018-05-23T02:52:24.844Z,6.37
2018-05-23T02:54:52.714Z,6.07
2018-05-23T02:57:20.326Z,7.00
2018-05-23T02:59:48.002Z,6.53
2018-05-23T03:02:15.615Z,6.47
2018-05-23T03:04:43.209Z,6.30
2018-05-23T03:07:10.871Z,5.93
2018-05-23T03:09:38.458Z,6.17
2018-05-23T03:12:06.052Z,6.60
2018-05-23T03:14:33.733Z,6.33
2018-05-23T03:17:01.310Z,5.63
2018-05-23T03:19:28.999Z,6.40
2018-05-23T03:21:56.606Z,6.47
2018-05-23T03:24:24.287Z,4.97
2018-05-23T03:26:52.286Z,6.83
2018-05-23T03:29:19.936Z,6.57
2018-05-23T03:31:47.601Z,5.27
2018-05-23T03:34:15.233Z,5.40
2018-05-23T03:36:42.881Z,5.40
2018-05-23T03:39:10.736Z,5.87
2018-05-23T03:41:38.434Z,5.47
2018-05-23T03:44:06.039Z,5.80
2018-05-23T03:46:33.719Z,5.20
2018-05-23T03:49:01.337Z,5.10
2018-05-23T03:51:29.612Z,5.13
2018-05-23T03:53:57.198Z,5.80
2018-05-23T03:56:24.769Z,5.37
2018-05-23T03:58:52.920Z,4.73
2018-05-23T04:01:32.079Z,5.30
2018-05-23T04:04:11.487Z,5.00
2018-05-23T04:06:50.704Z,4.70
2018-05-23T04:09:18.366Z,4.70
2018-05-23T04:11:46.000Z,4.50
2018-05-23T04:14:13.600Z,5.57
2018-05-23T04:16:41.280Z,4.67
2018-05-23T04:19:08.865Z,5.03
2018-05-23T04:21:36.495Z,5.03
2018-05-23T04:24:04.229Z,4.27
2018-05-23T04:26:32.029Z,4.63
2018-05-23T04:29:00.133Z,4.40
2018-05-23T04:31:27.751Z,4.37
2018-05-23T04:33:55.708Z,4.80
2018-05-23T04:36:23.303Z,4.40
2018-05-23T04:38:51.196Z,4.30
2018-05-23T04:41:18.808Z,4.33
2018-05-23T04:43:46.427Z,3.80
2018-05-23T04:46:14.012Z,4.37
2018-05-23T04:48:41.729Z,4.40
2018-05-23T04:51:09.372Z,4.23
2018-05-23T04:53:37.034Z,4.50
2018-05-23T04:56:05.045Z,4.33
2018-05-23T04:58:32.656Z,3.90
2018-05-23T05:01:00.361Z,3.77
2018-05-23T05:03:28.455Z,4.23
2018-05-23T05:05:56.075Z,4.13
2018-05-23T05:08:24.173Z,3.73
2018-05-23T05:10:52.000Z,3.50
2018-05-23T05:13:20.104Z,4.10
2018-05-23T05:15:47.814Z,3.53
2018-05-23T05:18:15.498Z,4.40
2018-05-23T05:20:43.612Z,4.87
2018-05-23T05:23:11.515Z,4.60
2018-05-23T05:25:39.155Z,4.37
2018-05-23T05:28:07.071Z,4.63
2018-05-23T05:30:34.721Z,3.83
2018-05-23T05:33:02.345Z,4.63
2018-05-23T05:35:29.999Z,4.33
2018-05-23T05:37:57.876Z,4.23
2018-05-23T05:40:25.658Z,3.77
2018-05-23T05:42:53.419Z,4.10
2018-05-23T05:45:21.190Z,5.17
2018-05-23T05:47:48.855Z,4.70
2018-05-23T05:50:16.996Z,4.03
2018-05-23T05:52:44.913Z,4.03
2018-05-23T05:55:12.758Z,4.80
2018-05-23T05:57:40.497Z,3.90
2018-05-23T06:00:08.221Z,3.80
2018-05-23T06:02:35.901Z,4.00
2018-05-23T06:05:03.994Z,3.40
2018-05-23T06:07:32.069Z,3.63
2018-05-23T06:09:59.769Z,3.50
2018-05-23T06:12:27.901Z,4.00
2018-05-23T06:14:55.559Z,4.43
2018-05-23T06:17:23.198Z,4.10
2018-05-23T06:19:51.096Z,4.10
2018-05-23T06:22:18.871Z,4.17
2018-05-23T06:24:46.500Z,4.83
2018-05-23T06:27:14.236Z,5.00
2018-05-23T06:29:42.035Z,4.80
2018-05-23T06:32:09.765Z,4.27
2018-05-23T06:34:37.453Z,4.00
2018-05-23T06:37:05.151Z,4.00
2018-05-23T06:39:32.835Z,4.43
2018-05-23T06:42:01.095Z,4.47
2018-05-23T06:44:28.757Z,4.67
2018-05-23T06:46:56.941Z,4.53
2018-05-23T06:49:24.615Z,4.13
2018-05-23T06:51:52.356Z,4.20
2018-05-23T06:54:19.944Z,4.43
2018-05-23T06:56:47.572Z,4.20
2018-05-23T06:59:15.496Z,4.50
2018-05-23T07:01:43.616Z,5.20
2018-05-23T07:04:11.577Z,4.70
2018-05-23T07:06:39.171Z,3.77
2018-05-23T07:09:06.762Z,4.10
2018-05-23T07:11:34.468Z,4.27
2018-05-23T07:14:02.179Z,4.83
2018-05-23T07:16:29.833Z,5.20
2018-05-23T07:18:57.533Z,5.10
2018-05-23T07:21:25.111Z,5.00
2018-05-23T07:23:52.808Z,5.13
2018-05-23T07:26:20.416Z,4.43
2018-05-23T07:28:48.142Z,4.63
2018-05-23T07:31:15.974Z,4.80
2018-05-23T07:33:44.488Z,4.80
2018-05-23T07:36:12.091Z,4.63
2018-05-23T07:38:39.922Z,4.10
2018-05-23T07:41:07.679Z,5.47
2018-05-23T07:43:35.550Z,5.30
2018-05-23T07:46:03.183Z,4.97
2018-05-23T07:48:30.783Z,5.67
2018-05-23T07:50:58.345Z,5.00
2018-05-23T07:53:26.070Z,5.27
2018-05-23T07:55:53.645Z,4.97
2018-05-23T07:58:21.230Z,4.83
2018-05-23T08:00:48.867Z,5.10
2018-05-23T08:03:16.457Z,4.83
2018-05-23T08:05:44.053Z,5.27
2018-05-23T08:08:12.043Z,5.00
2018-05-23T08:10:39.624Z,4.70
2018-05-23T08:13:07.204Z,3.97
2018-05-23T08:15:34.803Z,5.70
2018-05-23T08:18:02.376Z,4.83
2018-05-23T08:20:29.969Z,5.17
2018-05-23T08:22:57.545Z,5.53
2018-05-23T08:25:25.349Z,5.67
2018-05-23T08:27:53.352Z,5.10
2018-05-23T08:30:21.145Z,5.10
2018-05-23T08:32:48.820Z,5.30
2018-05-23T08:35:16.717Z,5.80
2018-05-23T08:37:44.315Z,4.93
2018-05-23T08:40:11.872Z,5.60
2018-05-23T08:42:39.798Z,5.10
2018-05-23T08:45:07.363Z,5.93
2018-05-23T08:47:34.916Z,5.10
2018-05-23T08:50:02.608Z,5.57
2018-05-23T08:52:30.422Z,4.87
2018-05-23T08:54:57.991Z,6.73
2018-05-23T08:57:25.740Z,5.57
2018-05-23T08:59:53.315Z,5.40
2018-05-23T09:02:20.941Z,5.83
2018-05-23T09:04:48.860Z,5.87
2018-05-23T09:07:16.700Z,4.80
2018-05-23T09:09:44.354Z,5.10
2018-05-23T09:12:15.617Z,4.90
2018-05-23T09:14:43.347Z,5.60
2018-05-23T09:17:10.971Z,5.37
2018-05-23T09:19:38.524Z,5.07
2018-05-23T09:22:07.059Z,5.80
2018-05-23T09:24:34.917Z,4.80
2018-05-23T09:27:02.505Z,4.77
2018-05-23T09:29:30.066Z,4.30
2018-05-23T09:31:57.984Z,4.87
2018-05-23T09:34:25.578Z,5.40
2018-05-23T09:36:53.147Z,5.67
2018-05-23T09:39:20.817Z,5.17
2018-05-23T09:41:48.375Z,5.23
2018-05-23T09:44:16.426Z,5.03
2018-05-23T09:46:43.987Z,6.10
2018-05-23T09:49:11.804Z,4.80
2018-05-23T09:51:39.636Z,6.50
2018-05-23T09:54:07.200Z,4.77
2018-05-23T09:56:34.901Z,5.43
2018-05-23T09:59:02.466Z,5.63
2018-05-23T10:01:30.037Z,5.43
2018-05-23T10:03:57.988Z,5.53
2018-05-23T10:06:25.784Z,4.57
2018-05-23T10:08:53.383Z,5.17
2018-05-23T10:11:21.018Z,6.00
2018-05-23T10:13:48.937Z,5.90
2018-05-23T10:16:16.498Z,5.13
2018-05-23T10:18:44.304Z,6.70
2018-05-23T10:21:12.386Z,5.40
2018-05-23T10:23:39.940Z,5.90
2018-05-23T10:26:07.495Z,5.77
2018-05-23T10:28:35.130Z,4.97
2018-05-23T10:31:02.784Z,5.00
2018-05-23T10:33:30.635Z,4.10
2018-05-23T10:35:58.207Z,5.50
2018-05-23T10:38:26.175Z,4.47
2018-05-23T10:40:53.800Z,6.83
2018-05-23T10:43:21.363Z,4.70
2018-05-23T10:45:49.252Z,5.73
2018-05-23T10:48:16.807Z,5.67
2018-05-23T10:50:44.570Z,5.20
2018-05-23T10:53:12.369Z,5.10
2018-05-23T10:55:40.223Z,4.80
2018-05-23T10:58:07.950Z,5.00
2018-05-23T11:00:35.517Z,5.87
2018-05-23T11:03:03.176Z,4.87
2018-05-23T11:05:30.696Z,4.90
2018-05-23T11:07:58.302Z,4.90
2018-05-23T11:10:26.083Z,4.57
2018-05-23T11:12:53.943Z,5.53
2018-05-23T11:15:21.543Z,5.20
2018-05-23T11:17:49.243Z,4.23
2018-05-23T11:20:16.813Z,4.30
2018-05-23T11:22:44.375Z,4.47
2018-05-23T11:25:12.093Z,5.20
2018-05-23T11:27:39.647Z,4.93
2018-05-23T11:30:07.208Z,4.47
2018-05-23T11:32:34.859Z,4.30
2018-05-23T11:35:02.562Z,4.10
2018-05-23T11:37:30.115Z,2.80
2018-05-23T11:39:57.668Z,2.57
2018-05-23T11:42:25.301Z,2.97
2018-05-23T11:44:52.861Z,3.00
2018-05-23T11:47:20.616Z,2.50
2018-05-23T11:49:48.245Z,2.27
2018-05-23T11:52:15.887Z,2.50
2018-05-23T11:54:43.787Z,3.60
2018-05-23T11:57:11.325Z,2.87
2018-05-23T11:59:38.918Z,2.60
2018-05-23T12:02:06.490Z,2.53
2018-05-23T12:04:34.252Z,3.13
2018-05-23T12:07:01.808Z,3.00
2018-05-23T12:09:29.608Z,2.43
2018-05-23T12:11:57.347Z,2.53
2018-05-23T12:14:24.965Z,2.50
2018-05-23T12:16:52.613Z,2.57
2018-05-23T12:19:20.263Z,2.80
2018-05-23T12:21:47.828Z,3.50
2018-05-23T12:24:15.392Z,2.80
2018-05-23T12:26:42.965Z,3.40
2018-05-23T12:29:10.711Z,2.20
2018-05-23T12:31:38.276Z,2.60
2018-05-23T12:34:05.850Z,2.70
2018-05-23T12:36:33.436Z,2.60
2018-05-23T12:39:01.433Z,2.30
2018-05-23T12:41:29.002Z,2.63
2018-05-23T12:43:56.861Z,2.33
2018-05-23T12:46:24.444Z,2.40
2018-05-23T12:48:52.146Z,2.73
2018-05-23T12:51:19.704Z,2.40
2018-05-23T12:53:47.371Z,2.50
2018-05-23T12:56:15.092Z,2.50
2018-05-23T12:58:42.657Z,2.20
2018-05-23T13:01:10.244Z,2.40
2018-05-23T13:03:37.909Z,2.43
2018-05-23T13:06:05.785Z,2.43
2018-05-23T13:08:33.327Z,2.60
2018-05-23T13:11:01.019Z,2.33
2018-05-23T13:13:28.813Z,2.27
2018-05-23T13:15:56.380Z,2.70
2018-05-23T13:18:23.988Z,2.50
2018-05-23T13:20:51.662Z,2.40
2018-05-23T13:23:19.286Z,2.30
2018-05-23T13:25:46.975Z,2.53
2018-05-23T13:28:14.544Z,3.10
2018-05-23T13:30:42.166Z,2.43
2018-05-23T13:33:09.845Z,2.57
2018-05-23T13:35:37.520Z,2.53
2018-05-23T13:38:05.120Z,2.80
2018-05-23T13:40:32.672Z,2.70
2018-05-23T13:43:00.598Z,2.53
2018-05-23T13:45:28.160Z,2.70
2018-05-23T13:47:55.808Z,2.53
2018-05-23T13:50:23.480Z,3.13
2018-05-23T13:52:51.406Z,2.10
2018-05-23T13:55:19.108Z,2.60
2018-05-23T13:57:47.138Z,2.40
2018-05-23T14:00:14.706Z,2.60
2018-05-23T14:02:46.156Z,2.80
2018-05-23T14:05:14.021Z,2.70
2018-05-23T14:07:41.637Z,2.17
2018-05-23T14:10:09.276Z,2.67
2018-05-23T14:12:36.892Z,2.63
2018-05-23T14:15:04.470Z,2.67
2018-05-23T14:17:32.481Z,2.47
2018-05-23T14:20:00.052Z,2.67
2018-05-23T14:22:27.632Z,2.30
2018-05-23T14:24:55.472Z,3.37
2018-05-23T14:27:23.059Z,2.77
2018-05-23T14:29:50.717Z,2.60
2018-05-23T14:32:18.349Z,2.40
2018-05-23T14:34:46.172Z,2.93
2018-05-23T14:37:13.781Z,3.40
2018-05-23T14:39:41.444Z,2.97
2018-05-23T14:42:09.299Z,2.30
2018-05-23T14:44:36.889Z,2.80
2018-05-23T14:47:04.468Z,2.50
2018-05-23T14:49:32.089Z,2.03
2018-05-23T14:51:59.730Z,3.50
2018-05-23T14:54:27.319Z,2.67
2018-05-23T14:56:54.930Z,3.10
2018-05-23T14:59:22.546Z,2.60
2018-05-23T15:01:50.122Z,2.50
2018-05-23T15:04:17.935Z,3.20
2018-05-23T15:06:45.526Z,2.60
2018-05-23T15:09:13.211Z,2.53
2018-05-23T15:11:40.802Z,1.90
2018-05-23T15:14:08.375Z,2.50
2018-05-23T15:16:35.982Z,2.80
2018-05-23T15:19:03.580Z,2.53
2018-05-23T15:21:31.239Z,2.87
2018-05-23T15:23:59.386Z,3.17
2018-05-23T15:26:26.967Z,3.40
2018-05-23T15:28:54.544Z,2.50
2018-05-23T15:31:22.197Z,3.00
2018-05-23T15:33:49.857Z,2.83
2018-05-23T15:36:17.436Z,2.70
2018-05-23T15:38:45.113Z,2.40
2018-05-23T15:41:12.781Z,2.77
2018-05-23T15:43:40.445Z,2.67
2018-05-23T15:46:08.364Z,2.23
2018-05-23T15:48:35.996Z,2.50
2018-05-23T15:51:03.636Z,2.43
2018-05-23T15:53:31.458Z,2.40
2018-05-23T15:55:59.087Z,2.53
2018-05-23T15:58:26.914Z,2.47
2018-05-23T16:00:54.527Z,2.40
2018-05-23T16:03:22.111Z,2.33
2018-05-23T16:05:50.247Z,2.10
2018-05-23T16:08:17.834Z,2.57
2018-05-23T16:10:45.408Z,2.67
2018-05-23T16:13:13.038Z,2.50
2018-05-23T16:15:40.870Z,2.80
2018-05-23T16:18:08.684Z,2.67
2018-05-23T16:20:36.470Z,2.40
2018-05-23T16:23:04.026Z,2.63
2018-05-23T16:25:31.656Z,2.40
2018-05-23T16:27:59.348Z,2.90
2018-05-23T16:30:26.988Z,2.60
2018-05-23T16:32:54.598Z,2.47
2018-05-23T16:35:22.208Z,2.70
2018-05-23T16:37:49.881Z,1.93
2018-05-23T16:40:17.516Z,2.17
2018-05-23T16:42:45.148Z,2.53
2018-05-23T16:45:12.724Z,2.63
2018-05-23T16:47:40.338Z,2.93
2018-05-23T16:50:08.375Z,2.27
2018-05-23T16:52:35.958Z,2.60
2018-05-23T16:55:03.533Z,2.20
2018-05-23T16:57:31.205Z,2.77
2018-05-23T16:59:58.893Z,1.90
2018-05-23T17:02:26.899Z,2.33
2018-05-23T17:04:54.563Z,2.67
2018-05-23T17:07:22.196Z,1.93
2018-05-23T17:09:49.833Z,2.87
2018-05-23T17:12:17.427Z,2.20
2018-05-23T17:14:45.235Z,3.20
2018-05-23T17:17:13.391Z,2.80
2018-05-23T17:19:40.934Z,2.30
2018-05-23T17:22:08.510Z,2.60
2018-05-23T17:24:36.178Z,2.50
2018-05-23T17:27:03.791Z,2.27
2018-05-23T17:29:31.476Z,2.70
2018-05-23T17:31:59.271Z,2.20
2018-05-23T17:34:26.851Z,2.90
2018-05-23T17:36:54.480Z,2.20
2018-05-23T17:39:22.091Z,1.93
2018-05-23T17:41:51.106Z,1.60
2018-05-23T17:44:18.689Z,2.47
2018-05-23T17:46:46.426Z,1.80
2018-05-23T17:49:14.362Z,2.30
2018-05-23T17:51:41.937Z,3.40
2018-05-23T17:54:10.462Z,3.97
2018-05-23T17:56:38.159Z,2.50
2018-05-23T17:59:05.873Z,1.90
2018-05-23T18:01:33.458Z,2.10
2018-05-23T18:04:01.051Z,2.73
2018-05-23T18:06:28.847Z,1.90
2018-05-23T18:08:56.605Z,1.80
2018-05-23T18:11:24.255Z,2.00
2018-05-23T18:13:52.113Z,1.40
2018-05-23T18:16:19.814Z,1.13
2018-05-23T18:18:47.700Z,1.43
2018-05-23T18:21:15.514Z,1.90
2018-05-23T18:23:43.171Z,2.23
2018-05-23T18:26:11.037Z,1.73
2018-05-23T18:28:38.659Z,1.70
2018-05-23T18:31:06.313Z,2.07
2018-05-23T18:33:33.918Z,2.20
2018-05-23T18:36:01.540Z,1.67
2018-05-23T18:38:29.164Z,1.90
2018-05-23T18:40:57.120Z,1.37
2018-05-23T18:43:25.048Z,1.67
2018-05-23T18:45:52.583Z,2.03
2018-05-23T18:48:20.520Z,1.53
2018-05-23T18:50:48.185Z,2.47
2018-05-23T18:53:15.779Z,2.30
2018-05-23T18:55:43.405Z,1.77
2018-05-23T18:58:11.107Z,1.50
2018-05-23T19:00:38.674Z,1.40
2018-05-23T19:03:06.251Z,2.00
2018-05-23T19:05:34.672Z,2.30
2018-05-23T19:08:02.285Z,2.30
2018-05-23T19:10:29.928Z,1.70
2018-05-23T19:12:57.612Z,1.53
2018-05-23T19:15:25.515Z,1.20
2018-05-23T19:17:53.121Z,1.73
2018-05-23T19:20:21.136Z,2.03
2018-05-23T19:22:48.733Z,1.47
2018-05-23T19:25:16.746Z,2.20
2018-05-23T19:27:44.353Z,1.50
2018-05-23T19:30:12.023Z,1.67
2018-05-23T19:32:39.733Z,1.37
2018-05-23T19:35:07.317Z,2.10
2018-05-23T19:37:34.930Z,1.33
2018-05-23T19:40:02.652Z,2.37
2018-05-23T19:42:30.250Z,2.20
2018-05-23T19:44:57.847Z,1.47
2018-05-23T19:47:25.731Z,1.70
2018-05-23T19:49:53.406Z,1.70
2018-05-23T19:52:21.149Z,1.77
2018-05-23T19:54:48.970Z,1.60
2018-05-23T19:57:16.576Z,1.40
2018-05-23T19:59:44.580Z,1.77
2018-05-23T20:02:12.205Z,1.90
2018-05-23T20:04:39.917Z,1.60
2018-05-23T20:07:07.577Z,1.53
2018-05-23T20:09:35.181Z,1.50
2018-05-23T20:12:03.742Z,2.20
2018-05-23T20:14:32.646Z,1.83
2018-05-23T20:17:00.271Z,1.87
2018-05-23T20:19:27.920Z,2.00
2018-05-23T20:21:55.467Z,2.13
2018-05-23T20:24:23.173Z,1.50
2018-05-23T20:26:50.729Z,1.77
2018-05-23T20:29:18.327Z,1.77
2018-05-23T20:31:45.904Z,1.90
2018-05-23T20:34:13.469Z,2.07
2018-05-23T20:36:41.510Z,1.87
2018-05-23T20:39:09.098Z,1.90
2018-05-23T20:41:36.670Z,2.00
2018-05-23T20:44:04.587Z,1.90
2018-05-23T20:46:32.158Z,1.87
2018-05-23T20:48:59.785Z,2.13
2018-05-23T20:51:27.385Z,2.00
2018-05-23T20:53:54.949Z,2.10
2018-05-23T20:56:22.553Z,1.80
2018-05-23T20:58:50.141Z,2.20
2018-05-23T21:01:18.072Z,2.23
2018-05-23T21:03:45.658Z,2.00
2018-05-23T21:06:13.231Z,1.90
2018-05-23T21:08:41.262Z,3.10
2018-05-23T21:11:08.827Z,2.20
2018-05-23T21:13:36.831Z,2.47
2018-05-23T21:16:04.482Z,2.17
2018-05-23T21:18:32.072Z,1.90
2018-05-23T21:20:59.663Z,3.20
2018-05-23T21:23:27.229Z,2.50
2018-05-23T21:25:55.400Z,2.10
2018-05-23T21:28:22.961Z,2.67
2018-05-23T21:30:50.556Z,2.40
2018-05-23T21:33:18.153Z,2.93
2018-05-23T21:35:46.057Z,2.43
2018-05-23T21:38:14.538Z,2.90
2018-05-23T21:40:42.402Z,2.27
2018-05-23T21:43:10.424Z,3.30
2018-05-23T21:45:37.985Z,2.50
2018-05-23T21:48:05.563Z,2.43
2018-05-23T21:50:33.187Z,2.70
2018-05-23T21:53:01.164Z,3.00
2018-05-23T21:55:29.176Z,2.70
2018-05-23T21:57:57.322Z,2.50
2018-05-23T22:00:25.453Z,2.40
2018-05-23T22:02:53.617Z,2.67
2018-05-23T22:05:21.465Z,2.40
2018-05-23T22:07:49.574Z,3.33
2018-05-23T22:10:17.793Z,2.90
2018-05-23T22:12:47.016Z,2.90
2018-05-23T22:15:15.109Z,3.00
2018-05-23T22:17:42.738Z,2.27
2018-05-23T22:20:10.408Z,2.80
2018-05-23T22:22:38.041Z,3.20
2018-05-23T22:25:05.638Z,2.77
2018-05-23T22:27:33.310Z,3.23
2018-05-23T22:30:01.190Z,2.80
2018-05-23T22:32:28.743Z,4.73
2018-05-23T22:34:56.321Z,2.90
2018-05-23T22:37:23.920Z,2.30
2018-05-23T22:39:51.476Z,2.30
2018-05-23T22:42:19.151Z,2.40
2018-05-23T22:44:46.735Z,3.03
2018-05-23T22:47:14.457Z,3.17
2018-05-23T22:49:42.102Z,2.23
2018-05-23T22:52:09.737Z,2.53
2018-05-23T22:54:37.754Z,2.20
2018-05-23T22:57:05.345Z,2.20
2018-05-23T22:59:33.209Z,2.60
2018-05-23T23:02:00.851Z,2.03
2018-05-23T23:04:28.460Z,1.97
2018-05-23T23:06:56.339Z,2.73
2018-05-23T23:09:23.902Z,2.37
2018-05-23T23:11:51.521Z,2.27
2018-05-23T23:14:19.330Z,2.43
2018-05-23T23:16:46.921Z,2.20
2018-05-23T23:19:14.504Z,2.40
2018-05-23T23:21:42.069Z,3.20
2018-05-23T23:24:09.697Z,2.27
2018-05-23T23:26:37.278Z,2.43
2018-05-23T23:29:04.836Z,2.20
2018-05-23T23:31:32.460Z,2.23
2018-05-23T23:34:00.185Z,2.73
2018-05-23T23:36:27.771Z,2.70
2018-05-23T23:38:55.378Z,2.73
2018-05-23T23:41:22.982Z,2.60
2018-05-23T23:43:50.603Z,2.40
2018-05-23T23:46:18.557Z,2.20
2018-05-23T23:48:46.173Z,2.20
2018-05-23T23:51:13.747Z,3.30
2018-05-23T23:53:41.525Z,2.77
2018-05-23T23:56:09.488Z,2.30
2018-05-23T23:58:37.068Z,2.27
